Terminal Aerodrome Forecast
Issued by NWS

Home | Current Version | Previous Version | Text Only | Print | Product List | Glossary On
Versions: 1 2 3 4 5 6 7 8 9 10 11 12 13 14 15 16 17 18 19 20 21
121
FTUS46 KSTO 191135
TAFRBL
TAF
KRBL 191135Z 1912/2012 17008KT P6SM -SHRA BKN008 OVC015
      TEMPO 1920/1924 BKN015
     FM200600 16025G35KT P6SM RA OVC008=

USA.gov is the U.S. government's official web portal to all federal, state and local government web resources and services.